CYBQ

Tadoule Lake Airport

Tadoule Lake, Manitoba, Canada
METAR CYBQ 140800Z AUTO 29005KT 250V320 9SM OVC055 M07/M07 A2935 RMK SLP961
Observed Flight Rules
Dec-14 @ 08:00 UTC (30 minutes ago) Visual Flight Rules
Wind Visibility Clouds
290° at 5 knots 9 miles
  • Overcast at 5,500' AGL
Temperatures Readings
Current -7°C / 19°F
Dewpoint -7°C / 19°F
Humidity 100%
Altimeter 29.35" Hg
Pressure 996.1 hPa
Elevation 262
METAR CYBQ 140800Z AUTO 29005KT 250V320 9SM OVC055 M07/M07 A2935 RMK SLP961
Observed Flight Rules
Dec-14 @ 08:00 UTC
(30 minutes ago)
VFR
Wind Visibility
290° at 5 knots 9 miles
Clouds
  • Overcast at 5,500' AGL
Temperature Dewpoint
-7°C / 19°F -7°C / 19°F
Humidity Altimeter Pressure
100% 29.35" Hg 996.1 hPa